.
WxDataArchive / Data Records for 2015-10-07
2015-10-06 October 2015 2015-10-08

Data Records for Wednesday, 07 October 2015

Time	Temp	Chill	HIndex	Humid	Dewpt	 Wind 	HiWind	WindDir	Rain 	Barom
-----	----	-----	------	-----	-----	------	------	-------	-----	-----
00:00	58.7	58.7	58.7	91	56.1	0	0	---	0.00	30.069 
00:05	58.6	58.6	58.6	91	56.0	0	0	---	0.00	30.069 
00:10	58.4	58.4	58.4	91	55.8	0	0	---	0.00	30.069 
00:15	58.6	58.6	58.6	92	56.3	0	2	292	0.00	30.068 
00:20	58.6	58.6	58.6	92	56.3	1	3	292	0.00	30.068 
00:25	58.6	58.6	58.6	92	56.3	0	3	292	0.00	30.068 
00:30	58.6	58.6	58.6	92	56.3	0	1	292	0.00	30.066 
00:35	58.6	58.6	58.6	92	56.3	0	1	292	0.00	30.066 
00:40	58.6	58.6	58.6	92	56.3	0	1	292	0.00	30.066 
00:45	58.6	58.6	58.6	92	56.3	0	3	292	0.00	30.063 
00:50	58.6	58.6	58.6	93	56.6	0	1	292	0.00	30.063 
00:55	58.6	58.6	58.6	93	56.6	0	2	292	0.00	30.063 
01:00	58.6	58.6	58.6	93	56.6	0	1	292	0.00	30.064 
01:05	58.6	58.6	58.6	93	56.6	0	2	292	0.00	30.064 
01:10	58.6	58.6	58.6	93	56.6	0	0	---	0.00	30.064 
01:15	58.4	58.4	58.4	93	56.4	0	2	292	0.00	30.060 
01:20	58.4	58.4	58.4	93	56.4	0	2	292	0.00	30.060 
01:25	58.3	58.3	58.3	93	56.3	0	2	292	0.00	30.060 
01:30	58.3	58.3	58.3	93	56.3	0	1	292	0.00	30.060 
01:35	58.3	58.3	58.3	93	56.3	0	0	---	0.00	30.060 
01:40	58.1	58.1	58.1	93	56.1	0	0	---	0.00	30.060 
01:45	58.1	58.1	58.1	93	56.1	0	0	---	0.00	30.055 
01:50	58.1	58.1	58.1	93	56.1	0	0	---	0.00	30.055 
01:55	58.1	58.1	58.1	94	56.4	0	0	---	0.00	30.055 
02:00	58.1	58.1	58.1	94	56.4	0	0	---	0.00	30.050 
02:05	58.0	58.0	58.0	94	56.3	0	0	---	0.00	30.050 
02:10	58.0	58.0	58.0	94	56.3	0	0	---	0.00	30.050 
02:15	58.0	58.0	58.0	94	56.3	0	1	292	0.00	30.059 
02:20	58.0	58.0	58.0	94	56.3	0	1	292	0.00	30.059 
02:25	58.0	58.0	58.0	94	56.3	0	1	292	0.00	30.059 
02:30	57.8	57.8	57.8	94	56.1	0	1	292	0.00	30.058 
02:35	57.8	57.8	57.8	94	56.1	0	0	---	0.00	30.058 
02:40	57.8	57.8	57.8	94	56.1	0	1	292	0.00	30.058 
02:45	57.8	57.8	57.8	94	56.1	0	0	---	0.00	30.056 
02:50	57.8	57.8	57.8	94	56.1	0	0	---	0.00	30.056 
02:55	57.8	57.8	57.8	94	56.1	0	1	292	0.00	30.056 
03:00	57.8	57.8	57.8	94	56.1	0	1	292	0.00	30.059 
03:05	57.8	57.8	57.8	95	56.4	0	0	---	0.00	30.059 
03:10	57.8	57.8	57.8	95	56.4	0	1	292	0.00	30.059 
03:15	57.6	57.6	57.6	95	56.2	0	1	292	0.00	30.058 
03:20	57.6	57.6	57.6	95	56.2	0	0	---	0.00	30.058 
03:25	57.6	57.6	57.6	95	56.2	0	0	---	0.00	30.058 
03:30	57.6	57.6	57.6	95	56.2	0	1	292	0.00	30.058 
03:35	57.6	57.6	57.6	95	56.2	0	0	---	0.00	30.058 
03:40	57.6	57.6	57.6	95	56.2	0	2	292	0.00	30.058 
03:45	57.6	57.6	57.6	95	56.2	0	0	---	0.00	30.059 
03:50	57.5	57.5	57.5	95	56.1	0	1	292	0.00	30.059 
03:55	57.5	57.5	57.5	95	56.1	0	0	---	0.00	30.059 
04:00	57.5	57.5	57.5	95	56.1	0	0	---	0.00	30.060 
04:05	57.5	57.5	57.5	95	56.1	0	0	---	0.00	30.060 
04:10	57.5	57.5	57.5	95	56.1	0	0	---	0.00	30.060 
04:15	57.5	57.5	57.5	95	56.1	0	0	---	0.00	30.061 
04:20	57.5	57.5	57.5	95	56.1	0	0	---	0.00	30.061 
04:25	57.5	57.5	57.5	95	56.1	0	0	---	0.00	30.061 
04:30	57.3	57.3	57.3	95	55.9	0	1	292	0.00	30.061 
04:35	57.2	57.2	57.2	95	55.8	0	0	---	0.00	30.061 
04:40	57.0	57.0	57.0	95	55.6	0	0	---	0.00	30.061 
04:45	56.7	56.7	56.7	95	55.3	0	0	---	0.00	30.061 
04:50	56.6	56.6	56.6	95	55.2	0	0	---	0.00	30.061 
04:55	56.6	56.6	56.6	95	55.2	0	0	---	0.00	30.061 
05:00	56.6	56.6	56.6	95	55.2	0	0	---	0.00	30.056 
05:05	56.5	56.5	56.5	95	55.1	0	0	---	0.00	30.056 
05:10	56.3	56.3	56.3	95	54.9	0	0	---	0.00	30.056 
05:15	56.0	56.0	56.0	95	54.6	0	0	---	0.00	30.056 
05:20	55.9	55.9	55.9	95	54.5	0	0	---	0.00	30.056 
05:25	55.7	55.7	55.7	95	54.3	0	0	---	0.00	30.056 
05:30	55.6	55.6	55.6	95	54.2	0	0	---	0.00	30.054 
05:35	55.6	55.6	55.6	95	54.2	0	0	---	0.00	30.054 
05:40	55.4	55.4	55.4	95	54.0	0	0	---	0.00	30.054 
05:45	55.4	55.4	55.4	95	54.0	0	0	---	0.00	30.051 
05:50	55.3	55.3	55.3	95	53.9	0	0	---	0.00	30.051 
05:55	55.1	55.1	55.1	95	53.7	0	0	---	0.00	30.051 
06:00	55.1	55.1	55.1	95	53.7	0	0	---	0.00	30.061 
06:05	55.0	55.0	55.0	95	53.6	0	0	---	0.00	30.061 
06:10	55.0	55.0	55.0	95	53.6	0	0	---	0.00	30.061 
06:15	55.0	55.0	55.0	95	53.6	0	0	---	0.00	30.064 
06:20	55.0	55.0	55.0	95	53.6	0	0	---	0.00	30.064 
06:25	54.8	54.8	54.8	95	53.4	0	0	---	0.00	30.064 
06:30	54.8	54.8	54.8	95	53.4	0	0	---	0.00	30.065 
06:35	54.8	54.8	54.8	95	53.4	0	0	---	0.00	30.065 
06:40	54.7	54.7	54.7	95	53.3	0	0	---	0.00	30.065 
06:45	54.7	54.7	54.7	95	53.3	0	0	---	0.00	30.065 
06:50	54.5	54.5	54.5	95	53.1	0	0	---	0.00	30.065 
06:55	54.4	54.4	54.4	95	53.0	0	0	---	0.00	30.065 
07:00	54.4	54.4	54.4	95	53.0	0	0	---	0.00	30.068 
07:05	54.2	54.2	54.2	95	52.8	0	0	---	0.00	30.068 
07:10	54.1	54.1	54.1	95	52.7	0	0	---	0.00	30.068 
07:15	53.9	53.9	53.9	95	52.5	0	0	---	0.00	30.078 
07:20	53.8	53.8	53.8	95	52.4	0	0	---	0.00	30.078 
07:25	53.6	53.6	53.6	95	52.2	0	0	---	0.00	30.078 
07:30	53.6	53.6	53.6	95	52.2	0	0	---	0.00	30.081 
07:35	53.5	53.5	53.5	95	52.1	0	0	---	0.00	30.081 
07:40	53.5	53.5	53.5	95	52.1	0	0	---	0.00	30.081 
07:45	53.6	53.6	53.6	96	52.5	0	0	---	0.00	30.083 
07:50	53.6	53.6	53.6	96	52.5	0	0	---	0.00	30.083 
07:55	54.1	54.1	54.1	96	53.0	0	0	---	0.00	30.083 
08:00	54.2	54.2	54.2	96	53.1	0	0	---	0.00	30.094 
08:05	54.5	54.5	54.5	96	53.4	0	0	---	0.00	30.094 
08:10	54.8	54.8	54.8	96	53.7	0	0	---	0.00	30.094 
08:15	55.1	55.1	55.1	96	54.0	0	0	---	0.00	30.096 
08:20	55.3	55.3	55.3	96	54.2	0	0	---	0.00	30.096 
08:25	55.4	55.4	55.4	96	54.3	0	0	---	0.00	30.096 
08:30	55.6	55.6	55.6	96	54.5	0	0	---	0.00	30.101 
08:35	55.6	55.6	55.6	96	54.5	0	1	292	0.00	30.101 
08:40	55.6	55.6	55.6	96	54.5	0	1	292	0.00	30.101 
08:45	55.6	55.6	55.6	96	54.5	0	1	292	0.00	30.110 
08:50	55.6	55.6	55.6	96	54.5	0	2	292	0.00	30.110 
08:55	55.6	55.6	55.6	96	54.5	0	0	---	0.00	30.110 
09:00	55.7	55.7	55.7	96	54.6	0	0	---	0.00	30.106 
09:05	55.9	55.9	55.9	96	54.8	0	0	---	0.00	30.106 
09:10	55.9	55.9	55.9	96	54.8	0	0	---	0.00	30.106 
09:15	55.9	55.9	55.9	96	54.8	0	0	---	0.00	30.112 
09:20	55.9	55.9	55.9	96	54.8	0	0	---	0.00	30.112 
09:25	56.2	56.2	56.2	96	55.1	0	0	---	0.00	30.112 
09:30	56.3	56.3	56.3	96	55.2	0	1	315	0.00	30.112 
09:35	56.5	56.5	56.5	96	55.4	0	0	---	0.00	30.112 
09:40	56.5	56.5	56.5	96	55.4	0	0	---	0.00	30.112 
09:45	56.6	56.6	56.6	96	55.5	0	0	---	0.00	30.111 
09:50	56.9	56.9	56.9	96	55.8	0	0	---	0.00	30.111 
09:55	57.0	57.0	57.0	95	55.6	0	0	---	0.00	30.111 
10:00	57.0	57.0	57.0	95	55.6	0	0	---	0.00	30.117 
10:05	57.0	57.0	57.0	95	55.6	0	2	315	0.00	30.117 
10:10	56.9	56.9	56.9	95	55.5	0	1	315	0.00	30.117 
10:15	56.9	56.9	56.9	95	55.5	0	0	---	0.00	30.119 
10:20	57.2	57.2	57.2	95	55.8	0	1	315	0.00	30.119 
10:25	57.2	57.2	57.2	95	55.8	0	2	315	0.00	30.119 
10:30	57.5	57.5	57.5	95	56.1	0	1	315	0.00	30.120 
10:35	57.8	57.8	57.8	95	56.4	0	1	202	0.00	30.120 
10:40	58.1	58.1	58.1	94	56.4	0	1	202	0.00	30.120 
10:45	58.3	58.3	58.3	93	56.3	0	2	202	0.00	30.117 
10:50	59.0	59.0	59.0	94	57.3	0	0	---	0.00	30.117 
10:55	59.9	59.9	59.9	92	57.6	0	0	---	0.00	30.117 
11:00	60.4	60.4	60.4	90	57.4	0	1	202	0.00	30.113 
11:05	60.9	60.9	60.9	88	57.3	0	2	202	0.00	30.113 
11:10	61.5	61.5	61.5	86	57.3	0	1	202	0.00	30.113 
11:15	61.8	61.8	61.8	84	56.9	0	1	202	0.00	30.113 
11:20	62.1	62.1	62.1	81	56.2	1	3	248	0.00	30.113 
11:25	62.3	62.3	62.3	78	55.3	0	2	248	0.00	30.113 
11:30	62.7	62.7	62.7	77	55.4	0	2	248	0.00	30.117 
11:35	63.2	63.2	63.2	76	55.5	1	3	248	0.00	30.117 
11:40	63.4	63.4	63.4	76	55.7	0	3	248	0.00	30.117 
11:45	63.7	63.7	63.7	74	55.3	0	1	248	0.00	30.117 
11:50	63.7	63.7	63.7	73	54.9	0	1	248	0.00	30.117 
11:55	63.9	63.9	63.9	69	53.5	0	2	248	0.00	30.117 
12:00	64.3	64.3	64.3	67	53.1	0	2	248	0.00	30.117 
12:05	65.3	65.3	65.3	67	54.1	0	2	248	0.00	30.117 
12:10	65.6	65.6	65.6	63	52.7	0	2	248	0.00	30.117 
12:15	65.6	65.6	65.6	61	51.8	0	2	248	0.00	30.113 
12:20	65.8	65.8	65.8	61	52.0	0	2	248	0.00	30.113 
12:25	66.3	66.3	66.3	62	52.9	0	3	248	0.00	30.113 
12:30	66.6	66.6	66.6	60	52.3	1	3	248	0.00	30.113 
12:35	67.3	67.3	67.3	61	53.4	0	1	248	0.00	30.113 
12:40	67.6	67.6	67.6	59	52.8	0	2	248	0.00	30.113 
12:45	67.6	67.6	67.6	58	52.3	0	3	248	0.00	30.109 
12:50	67.8	67.8	67.8	59	52.9	0	1	248	0.00	30.109 
12:55	68.1	68.1	68.1	59	53.2	1	2	248	0.00	30.109 
13:00	68.3	68.3	68.3	58	52.9	0	3	248	0.00	30.108 
13:05	68.6	68.6	68.6	58	53.2	1	2	248	0.00	30.108 
13:10	68.9	68.9	68.9	58	53.5	0	1	248	0.00	30.108 
13:15	69.6	69.6	69.6	58	54.2	0	2	248	0.00	30.106 
13:20	70.1	70.1	70.1	57	54.1	0	1	248	0.00	30.106 
13:25	70.6	70.6	70.6	57	54.6	0	1	248	0.00	30.106 
13:30	70.9	70.9	70.9	55	53.9	0	1	248	0.00	30.105 
13:35	70.9	70.9	70.9	54	53.4	0	2	248	0.00	30.105 
13:40	71.1	71.1	71.1	56	54.6	0	1	248	0.00	30.105 
13:45	71.1	71.1	71.1	53	53.1	1	3	248	0.00	30.098 
13:50	71.3	71.3	71.3	55	54.3	0	1	248	0.00	30.098 
13:55	71.6	71.6	71.6	54	54.1	0	2	248	0.00	30.098 
14:00	72.0	72.0	72.0	52	53.4	0	2	248	0.00	30.093 
14:05	72.3	72.3	72.3	50	52.6	1	3	248	0.00	30.093 
14:10	72.3	72.3	72.3	50	52.6	1	4	315	0.00	30.093 
14:15	72.1	72.1	72.1	53	54.0	1	3	292	0.00	30.091 
14:20	72.1	72.1	72.1	51	53.0	1	4	292	0.00	30.091 
14:25	72.0	72.0	72.0	52	53.4	1	3	292	0.00	30.091 
14:30	72.0	72.0	72.0	51	52.9	0	3	292	0.00	30.085 
14:35	72.3	72.3	72.3	53	54.2	0	1	292	0.00	30.085 
14:40	72.5	72.5	72.5	50	52.8	1	4	292	0.00	30.085 
14:45	72.7	72.7	72.7	51	53.5	0	3	292	0.00	30.075 
14:50	72.8	72.8	72.8	50	53.1	0	2	292	0.00	30.075 
14:55	73.2	73.2	73.2	50	53.4	1	4	292	0.00	30.075 
15:00	73.2	73.2	73.2	49	52.9	1	3	292	0.00	30.072 
15:05	73.3	73.3	73.3	50	53.5	1	3	292	0.00	30.072 
15:10	73.3	73.3	73.3	50	53.5	1	3	292	0.00	30.072 
15:15	73.3	73.3	73.3	50	53.5	2	5	292	0.00	30.070 
15:20	73.5	73.5	73.5	50	53.7	1	4	292	0.00	30.070 
15:25	73.9	73.9	73.9	50	54.1	1	5	315	0.00	30.070 
15:30	74.0	74.0	74.0	50	54.2	1	3	315	0.00	30.059 
15:35	74.2	74.2	74.2	50	54.3	0	1	315	0.00	30.059 
15:40	74.4	74.4	74.4	50	54.5	0	1	315	0.00	30.059 
15:45	74.6	74.6	74.6	49	54.2	0	2	315	0.00	30.057 
15:50	74.2	74.2	74.2	49	53.8	0	2	315	0.00	30.057 
15:55	73.9	73.9	73.9	50	54.1	0	2	315	0.00	30.057 
16:00	73.7	73.7	73.7	49	53.3	2	4	292	0.00	30.057 
16:05	73.7	73.7	73.7	49	53.3	1	3	292	0.00	30.057 
16:10	73.5	73.5	73.5	50	53.7	0	2	292	0.00	30.057 
16:15	73.5	73.5	73.5	50	53.7	0	2	292	0.00	30.058 
16:20	73.3	73.3	73.3	50	53.5	1	3	292	0.00	30.058 
16:25	73.5	73.5	73.5	49	53.2	1	3	292	0.00	30.058 
16:30	73.9	73.9	73.9	49	53.5	1	3	292	0.00	30.056 
16:35	73.9	73.9	73.9	49	53.5	1	2	292	0.00	30.056 
16:40	73.9	73.9	73.9	49	53.5	1	4	292	0.00	30.056 
16:45	73.9	73.9	73.9	50	54.1	0	3	292	0.00	30.057 
16:50	73.9	73.9	73.9	49	53.5	1	4	292	0.00	30.057 
16:55	74.0	74.0	74.0	49	53.6	1	3	292	0.00	30.057 
17:00	74.0	74.0	74.0	49	53.6	0	2	292	0.00	30.056 
17:05	74.0	74.0	74.0	49	53.6	1	3	292	0.00	30.056 
17:10	74.0	74.0	74.0	49	53.6	1	4	292	0.00	30.056 
17:15	73.7	73.7	73.7	49	53.3	1	4	292	0.00	30.059 
17:20	73.5	73.5	73.5	51	54.2	0	3	292	0.00	30.059 
17:25	73.3	73.3	73.3	51	54.1	0	3	292	0.00	30.059 
17:30	73.5	73.5	73.5	49	53.2	0	3	292	0.00	30.059 
17:35	73.5	73.5	73.5	50	53.7	0	1	292	0.00	30.059 
17:40	73.5	73.5	73.5	50	53.7	1	3	292	0.00	30.059 
17:45	73.3	73.3	73.3	50	53.5	1	2	292	0.00	30.058 
17:50	73.2	73.2	73.2	50	53.4	0	2	292	0.00	30.058 
17:55	73.0	73.0	73.0	50	53.2	0	2	292	0.00	30.058 
18:00	73.0	73.0	73.0	50	53.2	0	2	292	0.00	30.059 
18:05	72.8	72.8	72.8	50	53.1	0	1	292	0.00	30.059 
18:10	72.7	72.7	72.7	50	53.0	1	3	292	0.00	30.059 
18:15	72.5	72.5	72.5	51	53.3	0	1	292	0.00	30.060 
18:20	72.3	72.3	72.3	52	53.7	0	1	292	0.00	30.060 
18:25	72.1	72.1	72.1	52	53.5	0	0	---	0.00	30.060 
18:30	72.0	72.0	72.0	52	53.4	0	1	292	0.00	30.058 
18:35	71.6	71.6	71.6	53	53.5	0	0	---	0.00	30.058 
18:40	71.3	71.3	71.3	53	53.3	0	0	---	0.00	30.058 
18:45	71.1	71.1	71.1	54	53.6	0	0	---	0.00	30.061 
18:50	70.8	70.8	70.8	56	54.3	0	0	---	0.00	30.061 
18:55	70.4	70.4	70.4	56	53.9	0	0	---	0.00	30.061 
19:00	70.1	70.1	70.1	57	54.1	0	0	---	0.00	30.063 
19:05	69.8	69.8	69.8	58	54.3	0	0	---	0.00	30.063 
19:10	69.4	69.4	69.4	58	54.0	0	0	---	0.00	30.063 
19:15	68.9	68.9	68.9	60	54.4	0	0	---	0.00	30.066 
19:20	68.6	68.6	68.6	61	54.6	0	0	---	0.00	30.066 
19:25	68.1	68.1	68.1	62	54.6	0	0	---	0.00	30.066 
19:30	67.6	67.6	67.6	63	54.5	0	0	---	0.00	30.070 
19:35	66.9	66.9	66.9	65	54.7	0	0	---	0.00	30.070 
19:40	66.4	66.4	66.4	66	54.7	0	0	---	0.00	30.070 
19:45	65.8	65.8	65.8	67	54.5	0	0	---	0.00	30.075 
19:50	65.3	65.3	65.3	68	54.5	0	0	---	0.00	30.075 
19:55	65.0	65.0	65.0	69	54.6	0	0	---	0.00	30.075 
20:00	64.5	64.5	64.5	70	54.5	0	0	---	0.00	30.081 
20:05	64.2	64.2	64.2	71	54.6	0	0	---	0.00	30.081 
20:10	63.9	63.9	63.9	72	54.7	0	0	---	0.00	30.081 
20:15	63.5	63.5	63.5	73	54.7	0	0	---	0.00	30.082 
20:20	63.2	63.2	63.2	73	54.4	0	0	---	0.00	30.082 
20:25	63.1	63.1	63.1	74	54.7	0	0	---	0.00	30.082 
20:30	62.7	62.7	62.7	75	54.7	0	0	---	0.00	30.084 
20:35	62.6	62.6	62.6	75	54.6	0	0	---	0.00	30.084 
20:40	62.4	62.4	62.4	76	54.7	0	0	---	0.00	30.084 
20:45	62.1	62.1	62.1	76	54.4	0	0	---	0.00	30.087 
20:50	62.0	62.0	62.0	77	54.7	0	0	---	0.00	30.087 
20:55	61.6	61.6	61.6	78	54.7	0	0	---	0.00	30.087 
21:00	61.3	61.3	61.3	79	54.7	0	0	---	0.00	30.090 
21:05	61.0	61.0	61.0	79	54.4	0	0	---	0.00	30.090 
21:10	60.9	60.9	60.9	80	54.7	0	0	---	0.00	30.090 
21:15	60.7	60.7	60.7	80	54.5	0	0	---	0.00	30.096 
21:20	60.7	60.7	60.7	80	54.5	0	0	---	0.00	30.096 
21:25	60.9	60.9	60.9	80	54.7	0	0	---	0.00	30.096 
21:30	61.2	61.2	61.2	79	54.6	0	0	---	0.00	30.099 
21:35	61.5	61.5	61.5	78	54.6	0	0	---	0.00	30.099 
21:40	61.8	61.8	61.8	76	54.1	0	1	292	0.00	30.099 
21:45	62.3	62.3	62.3	74	53.9	0	1	292	0.00	30.099 
21:50	62.6	62.6	62.6	73	53.8	0	1	292	0.00	30.099 
21:55	62.6	62.6	62.6	72	53.4	0	1	292	0.00	30.099 
22:00	62.6	62.6	62.6	72	53.4	0	1	292	0.00	30.096 
22:05	62.6	62.6	62.6	71	53.1	0	1	292	0.00	30.096 
22:10	62.6	62.6	62.6	71	53.1	0	0	---	0.00	30.096 
22:15	62.4	62.4	62.4	71	52.9	0	1	292	0.00	30.096 
22:20	62.3	62.3	62.3	71	52.8	0	0	---	0.00	30.096 
22:25	62.1	62.1	62.1	71	52.6	0	0	---	0.00	30.096 
22:30	62.0	62.0	62.0	71	52.5	0	1	292	0.00	30.100 
22:35	61.8	61.8	61.8	71	52.3	0	0	---	0.00	30.100 
22:40	61.6	61.6	61.6	72	52.5	0	0	---	0.00	30.100 
22:45	61.3	61.3	61.3	72	52.2	0	0	---	0.00	30.108 
22:50	61.2	61.2	61.2	72	52.1	0	0	---	0.00	30.108 
22:55	60.9	60.9	60.9	73	52.2	0	0	---	0.00	30.108 
23:00	60.5	60.5	60.5	74	52.2	0	0	---	0.00	30.108 
23:05	60.2	60.2	60.2	74	51.9	0	0	---	0.00	30.108 
23:10	59.8	59.8	59.8	75	51.9	0	0	---	0.00	30.108 
23:15	59.5	59.5	59.5	76	51.9	0	0	---	0.00	30.107 
23:20	59.0	59.0	59.0	77	51.8	0	0	---	0.00	30.107 
23:25	58.6	58.6	58.6	78	51.8	0	0	---	0.00	30.107 
23:30	58.3	58.3	58.3	78	51.5	0	0	---	0.00	30.107 
23:35	58.1	58.1	58.1	79	51.6	0	0	---	0.00	30.107 
23:40	57.8	57.8	57.8	80	51.7	0	0	---	0.00	30.107 
23:45	57.6	57.6	57.6	80	51.5	0	0	---	0.00	30.105 
23:50	57.3	57.3	57.3	80	51.2	0	0	---	0.00	30.105 
23:55	57.2	57.2	57.2	81	51.4	0	0	---	0.00	30.105 

CoCoRaHS
IN-AL-39
A2 Web Hosting
Creative Commons License
GoDaddy
search engine by freefind advanced

loaded 2018-11-17 18:30:26 • last modified 2010-11-18 10:43:29
Privacy PolicyDisclaimer
• wx.awcolley.com is powered by PmWiki v.2002016 •
• all content (unless otherwise noted) © 2018 A W Colley